CDT,Max TemperatureF,Mean TemperatureF,Min TemperatureF,Max Dew PointF,MeanDew PointF,Min DewpointF,Max Humidity, Mean Humidity, Min Humidity, Max Sea Level PressureIn, Mean Sea Level PressureIn, Min Sea Level PressureIn, Max VisibilityMiles, Mean VisibilityMiles, Min VisibilityMiles, Max Wind SpeedMPH, Mean Wind SpeedMPH, Max Gust SpeedMPH,PrecipitationIn, CloudCover, Events, WindDirDegrees
2013-10-1,81,72,62,65,63,59,100,80,60,29.99,29.96,29.91,10,8,3,18,10,26,0.00,4,,207
2013-10-2,83,73,63,67,64,62,100,76,51,30.08,30.02,29.96,10,4,0,15,5,18,0.00,3,Fog,148
2013-10-3,82,73,64,69,66,61,93,78,62,29.96,29.92,29.83,10,7,0,26,9,32,1.84,6,Fog-Rain-Thunderstorm,194
2013-10-4,86,77,67,70,67,64,93,74,55,29.97,29.93,29.89,10,7,2,15,8,19,0.00,4,,176
2013-10-5,77,67,56,70,65,52,97,81,64,29.92,29.87,29.81,10,9,5,18,9,25,0.02,6,Rain,215
2013-10-6,56,51,46,49,43,37,93,72,51,29.84,29.81,29.78,10,9,2,20,9,23,0.07,6,Rain,259
2013-10-7,70,58,45,48,45,43,93,65,37,30.10,29.97,29.84,10,10,7,16,6,20,0.00,3,,264
2013-10-8,76,62,48,51,47,45,86,61,36,30.21,30.15,30.11,10,10,10,14,5,18,0.00,0,,183
2013-10-9,74,61,47,48,46,44,93,64,35,30.22,30.16,30.11,10,10,9,10,3,15,0.00,0,,136
2013-10-10,77,63,49,57,52,45,93,72,50,30.17,30.10,30.01,10,10,9,14,4,18,0.00,1,,154
2013-10-11,79,68,57,59,54,52,87,65,42,30.04,29.98,29.90,10,10,6,21,9,27,0.00,1,Rain,161
2013-10-12,73,63,53,61,53,37,87,59,31,30.22,30.02,29.93,10,8,1,14,7,18,0.37,4,Rain-Thunderstorm,225
2013-10-13,68,56,43,41,36,29,89,57,24,30.41,30.35,30.23,10,10,10,10,3,15,0.00,0,,17
2013-10-14,67,54,41,43,39,35,89,61,32,30.39,30.27,30.08,10,10,10,16,7,22,0.00,0,,96
2013-10-15,71,60,48,61,52,40,90,72,53,30.05,29.91,29.81,10,8,4,21,10,26,0.02,6,Rain,209
2013-10-16,53,50,46,42,41,39,76,71,66,30.00,29.97,29.93,10,10,10,16,9,23,0.00,8,,270
2013-10-17,62,54,45,46,42,35,93,66,39,29.98,29.93,29.87,10,9,5,18,6,24,0.13,6,Rain,250
2013-10-18,54,49,43,41,38,35,89,70,50,30.03,29.98,29.89,10,10,9,14,7,20,T,6,Rain,281
2013-10-19,56,47,38,40,36,32,92,67,41,29.98,29.91,29.86,10,10,10,22,10,28,T,5,Rain,240
2013-10-20,70,55,39,45,40,36,86,61,35,29.90,29.84,29.74,10,10,10,24,9,32,T,5,Rain,212
2013-10-21,58,44,30,45,32,21,85,60,34,30.05,29.98,29.85,10,10,10,20,7,28,0.00,4,,302
2013-10-22,43,37,30,41,35,26,96,87,78,30.05,29.94,29.84,10,7,2,15,5,21,0.35,7,Rain,52
2013-10-23,46,40,33,35,30,25,92,69,45,30.11,30.05,29.97,10,10,6,14,8,19,T,7,,296
2013-10-24,44,37,29,35,25,21,92,68,43,30.39,30.23,30.08,10,10,9,16,7,23,T,7,,297
2013-10-25,53,39,25,32,25,21,92,62,32,30.47,30.35,30.15,10,10,10,18,8,26,0.00,0,,226
2013-10-26,57,46,34,35,29,27,82,57,32,30.14,30.05,29.97,10,10,10,21,10,32,0.00,2,,262
2013-10-27,56,43,29,32,29,26,85,62,38,30.13,30.08,30.01,10,10,10,15,4,20,0.00,0,,224
2013-10-28,63,48,33,40,33,29,83,59,34,30.32,30.21,30.09,10,10,10,21,6,24,0.00,0,,65
2013-10-29,57,48,39,52,43,37,93,74,55,30.31,30.21,30.11,10,7,2,15,8,19,0.02,5,Rain,101
2013-10-30,65,59,53,63,57,51,100,97,93,30.11,29.97,29.78,7,2,0,21,8,27,1.19,8,Fog-Rain-Thunderstorm,139
2013-10-31,64,55,45,63,55,41,97,90,82,29.74,29.49,29.29,10,6,1,23,10,29,1.12,8,Rain,253